Historyczne dane pomiarowe

Dodano dane terminowe – wersja testowa.

Dane z okresu 1951-2019

Wersja bazy: 1.34 [2019-03-16, lista zmian], aktualizacja planowana na 2019-04-15

Dane meteo z obszaru Polski uzyskane na podstawie danych udostępnionych przez Instytut Meteorologii i Gospodarki Wodnej – Państwowy Instytut Badawczy.

 

Wybierz Datę:    

       

TemperaturaWilgotnośćWiatrCiśnienieOpadyŚniegCzas trwania zjawisk
 Stacja t tx tn tng RH VA  wxwx mslp ppp RRR   cm mm wxwxwxwxwxwxwx
1961-08-14 12.2- 6.5- 80.5- 2.7 2.7---- 0.0------------
1961-08-13 12.0- 11.7- 87.5- 6.3 2.7---- 15.9------------
1961-08-12 17.4- 14.4- 84.0- 6.7 3.0---- 34.0------------
1961-08-11 21.8- 16.2- 79.3- 2.7 0.7---- 0.1------------
1961-08-10 22.3- 17.4- 73.0- 2.7 2.0---- 0.0------------
1961-08-09 22.3- 17.0- 76.0- 2.7 2.3---- 5.7------------
1961-08-08 20.4- 16.0- 80.0- 6.7 3.0---- 0.0------------
1961-08-07 23.6- 18.8- 66.5- 3.3 2.0---- 7.6------------
1961-08-06 24.4- 13.0- 53.3- 2.0 5.0---- 0.0------------
1961-08-05 19.0- 15.0- 73.0- 3.7 1.3---- 0.0------------
1961-08-04 15.3- 8.6- 71.3- 7.3 0.7---- 0.0------------
1961-08-03 15.9- 11.6- 85.8- 6.0 2.0---- 5.2------------
1961-08-02 17.4- 9.1- 73.5- 5.7 1.3---- 0.0------------
1961-08-01 15.8- 10.6- 72.5- 3.3 1.3---- 0.0------------
1961-07-31 12.2- 10.5- 84.8- 7.7 0.3---- 15.4------------
1961-07-30 11.6- 11.0- 84.0- 8.0 0.7---- 22.4------------
1961-07-29 12.3- 11.5- 87.0- 8.0 2.0---- 11.5------------
1961-07-28 20.7- 17.5- 66.3- 6.3 2.0---- 15.0------------
1961-07-27 22.3- 7.1- 59.0- 5.0 7.3---- 0.0------------
1961-07-26 16.8- 7.3- 64.0- 2.7 3.0---- 0.0------------
1961-07-25 12.0- 9.4- 74.5- 7.0 1.7---- 0.0------------
1961-07-24 14.3- 11.5- 66.5- 5.3 2.3---- 0.0------------
1961-07-23 16.3- 11.5- 69.8- 5.0 1.0---- 0.0------------
1961-07-22 14.5- 11.9- 81.8- 7.7 0.0---- 6.9------------
1961-07-21 15.4- 9.5- 75.0- 6.0 2.3---- 1.8------------
1961-07-20 14.1- 9.7- 81.8- 6.0 3.0---- 1.4------------
1961-07-19 14.3- 10.8- 78.5- 6.0 4.0---- 10.5------------
1961-07-18 14.6- 9.9- 73.5- 6.0 3.3---- 0.0------------
1961-07-17 15.9- 10.3- 66.0- 3.3 4.3---- 1.0------------
1961-07-16 16.5- 13.3- 70.0- 5.7 2.0---- 0.0------------
1961-07-15 19.3- 13.2- 64.8- 4.7 4.7---- 14.4------------
1961-07-14 15.9- 13.6- 54.5- 4.7 3.3---- 0.0------------
1961-07-13 19.9- 13.0- 73.3- 3.7 5.0---- 13.0------------
1961-07-12 20.5 27.2 11.6- 72.3- 2.0 5.3---- 0.0------------
1961-07-11 14.6 22.5 7.1- 80.0- 3.3 3.7---- 0.5------------
1961-07-10 14.8 18.1 10.2- 70.3- 5.7 3.3---- 8.0------------
1961-07-09 14.4 21.0 9.1- 76.8- 5.0 1.7---- 2.4------------
1961-07-08 13.7 19.9 5.8- 77.0- 5.0 0.7---- 0.0------------
1961-07-07 12.5 17.1 9.9- 74.3- 3.3 1.0---- 0.0------------
1961-07-06 12.3 16.8 7.3- 71.0- 4.7 2.7---- 0.2------------
1961-07-05 13.6 18.6 11.7- 71.8- 6.7 2.0---- 0.0------------
1961-07-04 21.0 28.4 15.2- 78.0- 5.0 3.0---- 11.0------------
1961-07-03 22.0 29.5 12.4- 65.3- 1.7 3.0---- 0.0------------
1961-07-02 19.0 27.0 12.5- 72.3- 1.7 0.3---- 0.0------------
1961-07-01 19.0 25.6 10.0- 72.3- 1.3 1.0---- 0.0------------
1961-06-30 16.3 22.0 8.6- 73.5- 1.7 1.3---- 0.0------------
1961-06-29 14.5 20.2 8.6- 75.3- 2.7 2.0---- 0.0------------
1961-06-28 13.9 20.5 11.8- 71.5- 6.0 5.0---- 2.5------------
1961-06-27 22.7 30.3 14.0- 70.8- 3.0 4.0---- 52.2------------
1961-06-26 20.3 29.2 14.3- 81.0- 5.3 2.3---- 3.5------------
1961-06-25 21.0 29.2 11.4- 64.8- 1.7 2.3---- 0.0------------
1961-06-24 19.8 24.7 11.0- 72.3- 4.0 2.7---- 0.0------------
1961-06-23 17.6 22.6 15.4- 75.0- 4.0 4.3---- 0.0------------
1961-06-22 19.7 26.0 10.5- 67.5- 5.3 1.7---- 4.0------------
1961-06-21 15.3 23.2 6.1- 70.5- 2.3 2.0---- 0.0------------
1961-06-20 14.6 19.6 12.0- 65.3- 2.7 3.7---- 0.0------------
1961-06-19 19.6 26.6 14.7- 73.0- 5.0 3.3---- 0.0------------
1961-06-18 19.1 25.0 8.4- 62.3- 1.3 1.3---- 0.0------------
1961-06-17 14.5 21.0 6.5- 69.5- 2.7 2.0---- 0.0------------
1961-06-16 12.9 18.1 6.9- 75.3- 2.0 1.3---- 0.0------------
399.7 ms

 

Źródłem pochodzenia danych jest Instytut Meteorologii i Gospodarki Wodnej – Państwowy Instytut Badawczy. Dane Instytutu Meteorologii i Gospodarki Wodnej – Państwowego Instytutu Badawczego zostały przetworzone.

Dane źródłowe można odnaleźć na stronie https://dane.imgw.pl